sensor_id;sensor_type;location;lat;lon;timestamp;pressure;altitude;pressure_sealevel;temperature;humidity
55801;BME280;41730;51.960;20.158;2023-02-01T00:00:44;98977.80;;;4.28;81.45
55801;BME280;41730;51.960;20.158;2023-02-01T00:03:16;98979.87;;;4.28;81.34
55801;BME280;41730;51.960;20.158;2023-02-01T00:05:57;98978.08;;;4.24;81.53
55801;BME280;41730;51.960;20.158;2023-02-01T00:08:29;98977.67;;;4.41;81.22
55801;BME280;41730;51.960;20.158;2023-02-01T00:11:03;98977.98;;;4.30;81.08
55801;BME280;41730;51.960;20.158;2023-02-01T00:13:36;98972.20;;;4.22;81.51
55801;BME280;41730;51.960;20.158;2023-02-01T00:16:11;98977.54;;;4.22;81.60
55801;BME280;41730;51.960;20.158;2023-02-01T00:18:44;98987.17;;;4.25;81.57
55801;BME280;41730;51.960;20.158;2023-02-01T00:21:18;99001.26;;;4.32;81.07
55801;BME280;41730;51.960;20.158;2023-02-01T00:23:50;99002.77;;;4.26;81.48
55801;BME280;41730;51.960;20.158;2023-02-01T00:26:25;99005.77;;;4.20;81.53
55801;BME280;41730;51.960;20.158;2023-02-01T00:28:59;99013.15;;;4.24;81.68
55801;BME280;41730;51.960;20.158;2023-02-01T00:31:31;99016.64;;;4.31;81.29
55801;BME280;41730;51.960;20.158;2023-02-01T00:34:03;99019.10;;;4.32;81.49
55801;BME280;41730;51.960;20.158;2023-02-01T00:36:35;99007.83;;;4.66;80.19
55801;BME280;41730;51.960;20.158;2023-02-01T00:39:06;99011.63;;;4.80;79.49
55801;BME280;41730;51.960;20.158;2023-02-01T00:41:38;99014.38;;;4.67;79.70
55801;BME280;41730;51.960;20.158;2023-02-01T00:44:10;99019.48;;;4.43;80.44
55801;BME280;41730;51.960;20.158;2023-02-01T00:46:42;99023.63;;;4.27;80.98
55801;BME280;41730;51.960;20.158;2023-02-01T00:49:14;99027.44;;;4.28;81.23
55801;BME280;41730;51.960;20.158;2023-02-01T00:51:45;99024.10;;;4.26;81.01
55801;BME280;41730;51.960;20.158;2023-02-01T00:54:17;99029.67;;;4.16;81.30
55801;BME280;41730;51.960;20.158;2023-02-01T00:56:49;99031.69;;;4.03;81.74
55801;BME280;41730;51.960;20.158;2023-02-01T00:59:20;99033.48;;;4.10;81.63
55801;BME280;41730;51.960;20.158;2023-02-01T01:01:52;99029.20;;;4.11;81.33
55801;BME280;41730;51.960;20.158;2023-02-01T01:04:24;99031.91;;;4.14;81.18
55801;BME280;41730;51.960;20.158;2023-02-01T01:06:55;99029.34;;;4.16;80.88
55801;BME280;41730;51.960;20.158;2023-02-01T01:09:27;99031.31;;;4.22;80.59
55801;BME280;41730;51.960;20.158;2023-02-01T01:11:59;99035.75;;;4.16;80.65
55801;BME280;41730;51.960;20.158;2023-02-01T01:14:33;99028.58;;;4.05;80.87
55801;BME280;41730;51.960;20.158;2023-02-01T01:17:04;99029.60;;;4.06;80.91
55801;BME280;41730;51.960;20.158;2023-02-01T01:19:36;99032.80;;;4.04;80.67
55801;BME280;41730;51.960;20.158;2023-02-01T01:22:08;99042.27;;;4.03;80.66
55801;BME280;41730;51.960;20.158;2023-02-01T01:24:39;99046.95;;;4.01;80.52
55801;BME280;41730;51.960;20.158;2023-02-01T01:27:11;99049.23;;;3.84;80.96
55801;BME280;41730;51.960;20.158;2023-02-01T01:29:42;99049.25;;;3.72;81.29
55801;BME280;41730;51.960;20.158;2023-02-01T01:32:14;99056.40;;;3.76;81.31
55801;BME280;41730;51.960;20.158;2023-02-01T01:34:46;99055.15;;;3.79;80.95
55801;BME280;41730;51.960;20.158;2023-02-01T01:37:17;99054.96;;;3.82;80.95
55801;BME280;41730;51.960;20.158;2023-02-01T01:39:49;99051.05;;;3.92;80.31
55801;BME280;41730;51.960;20.158;2023-02-01T01:42:20;99042.70;;;3.90;80.23
55801;BME280;41730;51.960;20.158;2023-02-01T01:45:03;99044.48;;;3.87;80.22
55801;BME280;41730;51.960;20.158;2023-02-01T01:47:39;99054.09;;;3.94;79.76
55801;BME280;41730;51.960;20.158;2023-02-01T01:50:16;99039.81;;;4.06;79.37
55801;BME280;41730;51.960;20.158;2023-02-01T01:52:51;99044.02;;;4.05;79.04
55801;BME280;41730;51.960;20.158;2023-02-01T01:55:26;99055.66;;;4.02;78.95
55801;BME280;41730;51.960;20.158;2023-02-01T01:58:02;99052.26;;;4.04;78.68
55801;BME280;41730;51.960;20.158;2023-02-01T02:00:38;99048.11;;;3.99;78.67
55801;BME280;41730;51.960;20.158;2023-02-01T02:03:14;99054.19;;;4.03;78.51
55801;BME280;41730;51.960;20.158;2023-02-01T02:05:47;99057.16;;;3.99;78.54
55801;BME280;41730;51.960;20.158;2023-02-01T02:08:21;99068.30;;;4.01;78.75
55801;BME280;41730;51.960;20.158;2023-02-01T02:10:53;99061.83;;;4.11;78.32
55801;BME280;41730;51.960;20.158;2023-02-01T02:13:33;99060.28;;;4.15;78.05
55801;BME280;41730;51.960;20.158;2023-02-01T02:19:18;99060.70;;;4.19;77.68
55801;BME280;41730;51.960;20.158;2023-02-01T02:22:09;99060.20;;;4.28;77.44
55801;BME280;41730;51.960;20.158;2023-02-01T02:28:08;99057.23;;;4.14;77.47
55801;BME280;41730;51.960;20.158;2023-02-01T02:31:01;99056.36;;;4.19;77.28
55801;BME280;41730;51.960;20.158;2023-02-01T02:33:53;99063.97;;;4.17;77.21
55801;BME280;41730;51.960;20.158;2023-02-01T02:36:33;99070.11;;;4.23;77.11
55801;BME280;41730;51.960;20.158;2023-02-01T02:39:11;99071.52;;;4.27;76.83
55801;BME280;41730;51.960;20.158;2023-02-01T02:41:53;99078.05;;;4.21;76.86
55801;BME280;41730;51.960;20.158;2023-02-01T02:44:48;99089.61;;;4.15;77.17
55801;BME280;41730;51.960;20.158;2023-02-01T02:47:54;99087.63;;;4.28;76.99
55801;BME280;41730;51.960;20.158;2023-02-01T02:50:32;99096.16;;;4.32;76.62
55801;BME280;41730;51.960;20.158;2023-02-01T02:53:27;99093.97;;;4.29;76.66
55801;BME280;41730;51.960;20.158;2023-02-01T02:56:20;99093.13;;;4.26;76.94
55801;BME280;41730;51.960;20.158;2023-02-01T02:59:11;99090.40;;;4.28;76.82
55801;BME280;41730;51.960;20.158;2023-02-01T03:02:01;99086.06;;;4.37;76.32
55801;BME280;41730;51.960;20.158;2023-02-01T03:04:54;99085.64;;;4.47;75.99
55801;BME280;41730;51.960;20.158;2023-02-01T03:08:00;99084.35;;;4.32;76.25
55801;BME280;41730;51.960;20.158;2023-02-01T03:10:40;99080.05;;;4.34;76.09
55801;BME280;41730;51.960;20.158;2023-02-01T03:13:15;99076.66;;;4.35;76.24
55801;BME280;41730;51.960;20.158;2023-02-01T03:15:53;99073.73;;;4.44;75.86
55801;BME280;41730;51.960;20.158;2023-02-01T03:18:32;99084.21;;;4.43;75.40
55801;BME280;41730;51.960;20.158;2023-02-01T03:21:08;99084.39;;;4.27;76.01
55801;BME280;41730;51.960;20.158;2023-02-01T03:23:43;99089.48;;;4.17;76.21
55801;BME280;41730;51.960;20.158;2023-02-01T03:26:18;99093.67;;;4.12;76.12
55801;BME280;41730;51.960;20.158;2023-02-01T03:28:51;99100.77;;;4.10;76.11
55801;BME280;41730;51.960;20.158;2023-02-01T03:31:26;99102.89;;;4.12;76.04
55801;BME280;41730;51.960;20.158;2023-02-01T03:33:59;99106.59;;;4.01;76.23
55801;BME280;41730;51.960;20.158;2023-02-01T03:36:34;99101.65;;;3.95;76.29
55801;BME280;41730;51.960;20.158;2023-02-01T03:39:11;99104.69;;;4.08;76.04
55801;BME280;41730;51.960;20.158;2023-02-01T03:41:50;99104.20;;;4.08;75.99
55801;BME280;41730;51.960;20.158;2023-02-01T03:44:24;99096.88;;;4.06;75.97
55801;BME280;41730;51.960;20.158;2023-02-01T03:47:00;99103.16;;;4.08;75.97
55801;BME280;41730;51.960;20.158;2023-02-01T03:49:35;99107.70;;;4.17;75.79
55801;BME280;41730;51.960;20.158;2023-02-01T03:52:11;99114.00;;;4.16;75.61
55801;BME280;41730;51.960;20.158;2023-02-01T03:54:45;99104.52;;;4.20;75.66
55801;BME280;41730;51.960;20.158;2023-02-01T03:57:20;99108.61;;;4.18;75.44
55801;BME280;41730;51.960;20.158;2023-02-01T03:59:53;99111.30;;;4.13;75.74
55801;BME280;41730;51.960;20.158;2023-02-01T04:02:24;99115.45;;;4.15;75.78
55801;BME280;41730;51.960;20.158;2023-02-01T04:04:56;99120.20;;;4.24;75.41
55801;BME280;41730;51.960;20.158;2023-02-01T04:07:28;99122.01;;;4.25;75.06
55801;BME280;41730;51.960;20.158;2023-02-01T04:10:01;99123.95;;;4.36;75.05
55801;BME280;41730;51.960;20.158;2023-02-01T04:12:33;99124.20;;;4.42;74.55
55801;BME280;41730;51.960;20.158;2023-02-01T04:15:07;99128.25;;;4.25;75.00
55801;BME280;41730;51.960;20.158;2023-02-01T04:17:39;99125.98;;;4.25;75.05
55801;BME280;41730;51.960;20.158;2023-02-01T04:20:12;99126.58;;;4.20;75.16
55801;BME280;41730;51.960;20.158;2023-02-01T04:22:44;99124.34;;;4.17;75.35
55801;BME280;41730;51.960;20.158;2023-02-01T04:25:16;99124.04;;;4.07;75.52
55801;BME280;41730;51.960;20.158;2023-02-01T04:27:48;99124.95;;;4.11;75.52
55801;BME280;41730;51.960;20.158;2023-02-01T04:30:20;99125.77;;;4.07;75.36
55801;BME280;41730;51.960;20.158;2023-02-01T04:32:54;99133.33;;;3.96;75.90
55801;BME280;41730;51.960;20.158;2023-02-01T04:35:27;99131.70;;;3.99;75.99
55801;BME280;41730;51.960;20.158;2023-02-01T04:38:02;99136.30;;;4.08;75.80
55801;BME280;41730;51.960;20.158;2023-02-01T04:40:38;99129.52;;;4.13;75.25
55801;BME280;41730;51.960;20.158;2023-02-01T04:43:12;99137.21;;;4.10;75.38
55801;BME280;41730;51.960;20.158;2023-02-01T04:45:48;99135.13;;;4.14;75.37
55801;BME280;41730;51.960;20.158;2023-02-01T04:48:20;99129.22;;;4.12;75.51
55801;BME280;41730;51.960;20.158;2023-02-01T04:50:53;99131.34;;;4.16;75.32
55801;BME280;41730;51.960;20.158;2023-02-01T04:53:25;99131.67;;;4.19;75.14
55801;BME280;41730;51.960;20.158;2023-02-01T04:55:57;99138.13;;;4.21;75.08
55801;BME280;41730;51.960;20.158;2023-02-01T04:58:28;99136.05;;;4.32;74.84
55801;BME280;41730;51.960;20.158;2023-02-01T05:01:01;99134.70;;;4.34;74.53
55801;BME280;41730;51.960;20.158;2023-02-01T05:03:34;99130.85;;;4.32;74.55
55801;BME280;41730;51.960;20.158;2023-02-01T05:06:07;99130.30;;;4.39;74.52
55801;BME280;41730;51.960;20.158;2023-02-01T05:08:38;99127.63;;;4.38;74.43
55801;BME280;41730;51.960;20.158;2023-02-01T05:11:10;99132.58;;;4.25;74.89
55801;BME280;41730;51.960;20.158;2023-02-01T05:14:02;99132.92;;;4.30;74.84
55801;BME280;41730;51.960;20.158;2023-02-01T05:16:33;99131.80;;;4.33;74.71
55801;BME280;41730;51.960;20.158;2023-02-01T05:19:05;99127.09;;;4.32;74.65
55801;BME280;41730;51.960;20.158;2023-02-01T05:21:37;99124.95;;;4.32;74.56
55801;BME280;41730;51.960;20.158;2023-02-01T05:24:09;99124.10;;;4.41;74.15
55801;BME280;41730;51.960;20.158;2023-02-01T05:26:42;99122.73;;;4.55;73.87
55801;BME280;41730;51.960;20.158;2023-02-01T05:29:15;99110.50;;;4.56;73.60
55801;BME280;41730;51.960;20.158;2023-02-01T05:31:49;99110.05;;;4.53;73.74
55801;BME280;41730;51.960;20.158;2023-02-01T05:34:21;99112.34;;;4.45;73.72
55801;BME280;41730;51.960;20.158;2023-02-01T05:36:53;99108.34;;;4.45;73.55
55801;BME280;41730;51.960;20.158;2023-02-01T05:39:24;99121.62;;;4.33;74.05
55801;BME280;41730;51.960;20.158;2023-02-01T05:41:57;99109.67;;;4.27;74.23
55801;BME280;41730;51.960;20.158;2023-02-01T05:44:28;99110.64;;;4.31;74.00
55801;BME280;41730;51.960;20.158;2023-02-01T05:47:00;99110.86;;;4.42;73.78
55801;BME280;41730;51.960;20.158;2023-02-01T05:49:31;99107.77;;;4.46;73.50
55801;BME280;41730;51.960;20.158;2023-02-01T05:52:03;99108.11;;;4.46;73.27
55801;BME280;41730;51.960;20.158;2023-02-01T05:54:35;99110.65;;;4.52;72.96
55801;BME280;41730;51.960;20.158;2023-02-01T05:57:07;99116.39;;;4.66;72.63
55801;BME280;41730;51.960;20.158;2023-02-01T05:59:39;99115.92;;;4.65;72.20
55801;BME280;41730;51.960;20.158;2023-02-01T06:02:11;99122.20;;;4.50;72.60
55801;BME280;41730;51.960;20.158;2023-02-01T06:04:43;99124.15;;;4.38;73.02
55801;BME280;41730;51.960;20.158;2023-02-01T06:07:15;99124.01;;;4.29;73.42
55801;BME280;41730;51.960;20.158;2023-02-01T06:09:46;99119.58;;;4.41;73.22
55801;BME280;41730;51.960;20.158;2023-02-01T06:12:18;99116.16;;;4.43;72.94
55801;BME280;41730;51.960;20.158;2023-02-01T06:14:49;99120.02;;;4.29;73.26
55801;BME280;41730;51.960;20.158;2023-02-01T06:17:21;99117.83;;;4.28;73.51
55801;BME280;41730;51.960;20.158;2023-02-01T06:19:53;99114.59;;;4.34;73.08
55801;BME280;41730;51.960;20.158;2023-02-01T06:22:24;99116.73;;;4.26;73.44
55801;BME280;41730;51.960;20.158;2023-02-01T06:24:56;99112.64;;;4.32;73.24
55801;BME280;41730;51.960;20.158;2023-02-01T06:27:28;99110.98;;;4.54;72.67
55801;BME280;41730;51.960;20.158;2023-02-01T06:30:00;99108.23;;;4.61;72.37
55801;BME280;41730;51.960;20.158;2023-02-01T06:32:33;99105.39;;;4.48;72.53
55801;BME280;41730;51.960;20.158;2023-02-01T06:35:06;99109.55;;;4.29;72.91
55801;BME280;41730;51.960;20.158;2023-02-01T06:37:41;99123.92;;;4.22;73.55
55801;BME280;41730;51.960;20.158;2023-02-01T06:40:14;99129.52;;;4.24;73.26
55801;BME280;41730;51.960;20.158;2023-02-01T06:42:46;99126.55;;;4.20;73.71
55801;BME280;41730;51.960;20.158;2023-02-01T06:45:19;99123.34;;;4.35;73.31
55801;BME280;41730;51.960;20.158;2023-02-01T06:47:51;99119.34;;;4.50;72.85
55801;BME280;41730;51.960;20.158;2023-02-01T06:50:23;99110.44;;;4.55;72.65
55801;BME280;41730;51.960;20.158;2023-02-01T06:52:54;99104.56;;;4.57;72.45
55801;BME280;41730;51.960;20.158;2023-02-01T06:55:26;99116.33;;;4.38;72.97
55801;BME280;41730;51.960;20.158;2023-02-01T06:57:58;99118.21;;;4.48;72.87
55801;BME280;41730;51.960;20.158;2023-02-01T07:00:31;99113.09;;;4.52;72.72
55801;BME280;41730;51.960;20.158;2023-02-01T07:03:02;99111.15;;;4.61;72.39
55801;BME280;41730;51.960;20.158;2023-02-01T07:05:34;99107.92;;;4.51;72.59
55801;BME280;41730;51.960;20.158;2023-02-01T07:08:06;99108.11;;;4.51;72.63
55801;BME280;41730;51.960;20.158;2023-02-01T07:10:39;99108.31;;;4.48;72.96
55801;BME280;41730;51.960;20.158;2023-02-01T07:13:11;99104.82;;;4.58;72.66
55801;BME280;41730;51.960;20.158;2023-02-01T07:15:43;99107.66;;;4.48;72.89
55801;BME280;41730;51.960;20.158;2023-02-01T07:18:16;99109.62;;;4.49;73.05
55801;BME280;41730;51.960;20.158;2023-02-01T07:20:52;99107.23;;;4.67;72.77
55801;BME280;41730;51.960;20.158;2023-02-01T07:23:26;99109.90;;;4.71;72.20
55801;BME280;41730;51.960;20.158;2023-02-01T07:25:59;99098.35;;;4.68;72.16
55801;BME280;41730;51.960;20.158;2023-02-01T07:28:33;99107.46;;;4.78;71.73
55801;BME280;41730;51.960;20.158;2023-02-01T07:31:06;99107.52;;;4.75;71.93
55801;BME280;41730;51.960;20.158;2023-02-01T07:33:38;99113.67;;;4.78;71.72
55801;BME280;41730;51.960;20.158;2023-02-01T07:36:13;99115.41;;;4.87;71.47
55801;BME280;41730;51.960;20.158;2023-02-01T07:38:45;99116.58;;;4.81;71.77
55801;BME280;41730;51.960;20.158;2023-02-01T07:41:18;99116.20;;;4.75;71.85
55801;BME280;41730;51.960;20.158;2023-02-01T07:43:50;99113.20;;;4.76;71.98
55801;BME280;41730;51.960;20.158;2023-02-01T07:46:23;99115.38;;;4.70;72.11
55801;BME280;41730;51.960;20.158;2023-02-01T07:48:55;99114.09;;;4.84;71.80
55801;BME280;41730;51.960;20.158;2023-02-01T07:51:27;99117.22;;;4.86;71.57
55801;BME280;41730;51.960;20.158;2023-02-01T07:54:00;99110.84;;;5.02;70.83
55801;BME280;41730;51.960;20.158;2023-02-01T07:56:32;99109.77;;;4.93;70.59
55801;BME280;41730;51.960;20.158;2023-02-01T07:59:04;99116.67;;;4.96;70.75
55801;BME280;41730;51.960;20.158;2023-02-01T08:01:37;99107.33;;;4.96;70.63
55801;BME280;41730;51.960;20.158;2023-02-01T08:04:10;99114.54;;;5.04;70.40
55801;BME280;41730;51.960;20.158;2023-02-01T08:06:42;99113.45;;;5.06;70.06
55801;BME280;41730;51.960;20.158;2023-02-01T08:09:14;99113.95;;;4.98;70.15
55801;BME280;41730;51.960;20.158;2023-02-01T08:11:46;99120.27;;;4.92;70.32
55801;BME280;41730;51.960;20.158;2023-02-01T08:14:18;99120.59;;;4.90;70.39
55801;BME280;41730;51.960;20.158;2023-02-01T08:16:50;99112.87;;;4.89;70.72
55801;BME280;41730;51.960;20.158;2023-02-01T08:19:21;99122.25;;;4.80;70.83
55801;BME280;41730;51.960;20.158;2023-02-01T08:21:53;99121.84;;;4.83;70.66
55801;BME280;41730;51.960;20.158;2023-02-01T08:24:25;99126.10;;;4.82;70.89
55801;BME280;41730;51.960;20.158;2023-02-01T08:26:57;99133.48;;;4.76;71.22
55801;BME280;41730;51.960;20.158;2023-02-01T08:29:28;99128.95;;;4.71;71.36
55801;BME280;41730;51.960;20.158;2023-02-01T08:32:00;99135.73;;;4.78;71.32
55801;BME280;41730;51.960;20.158;2023-02-01T08:34:32;99129.08;;;4.86;71.01
55801;BME280;41730;51.960;20.158;2023-02-01T08:37:05;99122.64;;;4.81;71.19
55801;BME280;41730;51.960;20.158;2023-02-01T08:39:37;99121.40;;;4.75;71.53
55801;BME280;41730;51.960;20.158;2023-02-01T08:42:09;99118.41;;;4.71;71.71
55801;BME280;41730;51.960;20.158;2023-02-01T08:44:58;99126.52;;;4.87;71.67
55801;BME280;41730;51.960;20.158;2023-02-01T08:47:30;99130.39;;;4.98;71.38
55801;BME280;41730;51.960;20.158;2023-02-01T08:50:03;99125.89;;;5.07;71.26
55801;BME280;41730;51.960;20.158;2023-02-01T08:52:34;99124.98;;;5.21;71.18
55801;BME280;41730;51.960;20.158;2023-02-01T08:55:10;99121.91;;;5.34;70.78
55801;BME280;41730;51.960;20.158;2023-02-01T08:57:41;99122.58;;;5.43;70.52
55801;BME280;41730;51.960;20.158;2023-02-01T09:00:16;99126.22;;;5.59;70.18
55801;BME280;41730;51.960;20.158;2023-02-01T09:02:48;99130.13;;;5.77;69.56
55801;BME280;41730;51.960;20.158;2023-02-01T09:05:21;99137.88;;;5.83;69.48
55801;BME280;41730;51.960;20.158;2023-02-01T09:08:07;99134.70;;;5.94;69.49
55801;BME280;41730;51.960;20.158;2023-02-01T09:10:38;99133.10;;;6.12;69.07
55801;BME280;41730;51.960;20.158;2023-02-01T09:13:11;99134.00;;;6.25;68.45
55801;BME280;41730;51.960;20.158;2023-02-01T09:15:46;99144.03;;;6.16;68.45
55801;BME280;41730;51.960;20.158;2023-02-01T09:18:18;99139.58;;;6.13;68.65
55801;BME280;41730;51.960;20.158;2023-02-01T09:20:50;99131.98;;;6.08;68.73
55801;BME280;41730;51.960;20.158;2023-02-01T09:23:22;99124.58;;;6.08;68.45
55801;BME280;41730;51.960;20.158;2023-02-01T09:25:54;99130.73;;;6.07;68.51
55801;BME280;41730;51.960;20.158;2023-02-01T09:28:30;99127.87;;;6.04;68.19
55801;BME280;41730;51.960;20.158;2023-02-01T09:31:03;99135.68;;;5.99;68.06
55801;BME280;41730;51.960;20.158;2023-02-01T09:33:35;99136.30;;;5.87;68.52
55801;BME280;41730;51.960;20.158;2023-02-01T09:36:08;99132.66;;;5.78;68.92
55801;BME280;41730;51.960;20.158;2023-02-01T09:38:40;99137.63;;;5.77;68.99
55801;BME280;41730;51.960;20.158;2023-02-01T09:44:34;99134.67;;;5.70;69.23
55801;BME280;41730;51.960;20.158;2023-02-01T09:47:16;99133.05;;;5.71;69.20
55801;BME280;41730;51.960;20.158;2023-02-01T09:49:54;99137.93;;;5.69;69.26
55801;BME280;41730;51.960;20.158;2023-02-01T09:52:31;99138.39;;;5.69;69.35
55801;BME280;41730;51.960;20.158;2023-02-01T09:55:07;99135.64;;;5.63;69.45
55801;BME280;41730;51.960;20.158;2023-02-01T09:57:50;99135.64;;;5.69;69.49
55801;BME280;41730;51.960;20.158;2023-02-01T10:00:29;99130.96;;;5.80;69.24
55801;BME280;41730;51.960;20.158;2023-02-01T10:03:01;99130.52;;;5.70;69.22
55801;BME280;41730;51.960;20.158;2023-02-01T10:05:47;99131.05;;;5.63;69.65
55801;BME280;41730;51.960;20.158;2023-02-01T10:08:31;99126.13;;;5.64;69.88
55801;BME280;41730;51.960;20.158;2023-02-01T10:11:13;99124.51;;;5.76;69.27
55801;BME280;41730;51.960;20.158;2023-02-01T10:13:57;99119.83;;;5.86;69.05
55801;BME280;41730;51.960;20.158;2023-02-01T10:16:37;99110.58;;;5.96;68.76
55801;BME280;41730;51.960;20.158;2023-02-01T10:19:38;99106.18;;;5.94;68.67
55801;BME280;41730;51.960;20.158;2023-02-01T10:22:16;99110.41;;;6.00;68.68
55801;BME280;41730;51.960;20.158;2023-02-01T10:25:20;99108.27;;;6.13;69.00
55801;BME280;41730;51.960;20.158;2023-02-01T10:27:55;99108.66;;;6.28;68.66
55801;BME280;41730;51.960;20.158;2023-02-01T10:30:33;99104.53;;;6.32;68.25
55801;BME280;41730;51.960;20.158;2023-02-01T10:33:35;99105.68;;;6.34;68.33
55801;BME280;41730;51.960;20.158;2023-02-01T10:36:13;99105.73;;;6.42;68.13
55801;BME280;41730;51.960;20.158;2023-02-01T10:38:47;99109.52;;;6.55;67.76
55801;BME280;41730;51.960;20.158;2023-02-01T10:41:21;99106.63;;;6.67;67.45
55801;BME280;41730;51.960;20.158;2023-02-01T10:43:56;99106.70;;;6.68;67.09
55801;BME280;41730;51.960;20.158;2023-02-01T10:46:31;99111.16;;;6.48;67.78
55801;BME280;41730;51.960;20.158;2023-02-01T10:49:04;99111.21;;;6.47;67.97
55801;BME280;41730;51.960;20.158;2023-02-01T10:51:45;99107.61;;;6.51;67.88
55801;BME280;41730;51.960;20.158;2023-02-01T10:54:23;99102.36;;;6.68;67.66
55801;BME280;41730;51.960;20.158;2023-02-01T10:57:03;99100.02;;;6.60;67.63
55801;BME280;41730;51.960;20.158;2023-02-01T10:59:38;99102.26;;;6.56;67.90
55801;BME280;41730;51.960;20.158;2023-02-01T11:02:22;99093.20;;;6.61;67.74
55801;BME280;41730;51.960;20.158;2023-02-01T11:05:07;99092.88;;;6.67;67.79
55801;BME280;41730;51.960;20.158;2023-02-01T11:07:45;99089.76;;;6.71;67.70
55801;BME280;41730;51.960;20.158;2023-02-01T11:10:35;99092.40;;;6.75;67.54
55801;BME280;41730;51.960;20.158;2023-02-01T11:13:14;99090.23;;;6.71;67.64
55801;BME280;41730;51.960;20.158;2023-02-01T11:15:54;99089.71;;;6.61;68.11
55801;BME280;41730;51.960;20.158;2023-02-01T11:18:29;99082.73;;;6.61;68.01
55801;BME280;41730;51.960;20.158;2023-02-01T11:21:02;99080.42;;;6.57;68.10
55801;BME280;41730;51.960;20.158;2023-02-01T11:23:38;99075.10;;;6.54;68.02
55801;BME280;41730;51.960;20.158;2023-02-01T11:26:15;99067.66;;;6.37;68.48
55801;BME280;41730;51.960;20.158;2023-02-01T11:28:54;99069.69;;;6.40;68.71
55801;BME280;41730;51.960;20.158;2023-02-01T11:31:29;99061.95;;;6.52;68.49
55801;BME280;41730;51.960;20.158;2023-02-01T11:34:07;99062.70;;;6.55;68.11
55801;BME280;41730;51.960;20.158;2023-02-01T11:36:41;99065.86;;;6.54;68.35
55801;BME280;41730;51.960;20.158;2023-02-01T11:39:24;99060.55;;;6.66;68.10
55801;BME280;41730;51.960;20.158;2023-02-01T11:42:05;99055.13;;;6.69;67.84
55801;BME280;41730;51.960;20.158;2023-02-01T11:44:44;99056.90;;;6.59;68.21
55801;BME280;41730;51.960;20.158;2023-02-01T11:47:25;99049.54;;;6.67;67.84
55801;BME280;41730;51.960;20.158;2023-02-01T11:49:59;99048.84;;;6.73;67.57
55801;BME280;41730;51.960;20.158;2023-02-01T11:52:53;99042.69;;;6.77;67.55
55801;BME280;41730;51.960;20.158;2023-02-01T11:55:42;99038.39;;;6.77;67.76
55801;BME280;41730;51.960;20.158;2023-02-01T11:58:29;99039.46;;;6.78;67.64
55801;BME280;41730;51.960;20.158;2023-02-01T12:01:20;99034.13;;;6.76;67.45
55801;BME280;41730;51.960;20.158;2023-02-01T12:06:54;99024.70;;;6.82;67.89
55801;BME280;41730;51.960;20.158;2023-02-01T12:09:44;99026.85;;;6.83;67.93
55801;BME280;41730;51.960;20.158;2023-02-01T12:12:25;99022.74;;;6.89;67.65
55801;BME280;41730;51.960;20.158;2023-02-01T12:15:11;99018.04;;;6.86;67.74
55801;BME280;41730;51.960;20.158;2023-02-01T12:18:01;99014.87;;;6.97;67.54
55801;BME280;41730;51.960;20.158;2023-02-01T12:20:55;99017.48;;;6.97;67.52
55801;BME280;41730;51.960;20.158;2023-02-01T12:23:48;99012.94;;;7.01;67.28
55801;BME280;41730;51.960;20.158;2023-02-01T12:26:40;99016.56;;;7.18;66.89
55801;BME280;41730;51.960;20.158;2023-02-01T12:29:23;99009.82;;;7.11;67.06
55801;BME280;41730;51.960;20.158;2023-02-01T12:32:08;99011.29;;;7.09;66.82
55801;BME280;41730;51.960;20.158;2023-02-01T12:38:17;99004.89;;;6.99;67.15
55801;BME280;41730;51.960;20.158;2023-02-01T12:41:06;99000.09;;;7.17;66.84
55801;BME280;41730;51.960;20.158;2023-02-01T12:43:47;99002.33;;;7.17;66.88
55801;BME280;41730;51.960;20.158;2023-02-01T12:46:26;99004.91;;;7.17;66.74
55801;BME280;41730;51.960;20.158;2023-02-01T12:49:09;99001.46;;;7.29;66.73
55801;BME280;41730;51.960;20.158;2023-02-01T12:51:46;99006.27;;;7.29;66.57
55801;BME280;41730;51.960;20.158;2023-02-01T12:54:21;99005.20;;;7.20;66.74
55801;BME280;41730;51.960;20.158;2023-02-01T12:56:59;99006.38;;;7.22;66.43
55801;BME280;41730;51.960;20.158;2023-02-01T12:59:36;99009.39;;;7.24;66.26
55801;BME280;41730;51.960;20.158;2023-02-01T13:02:14;99009.69;;;7.20;66.33
55801;BME280;41730;51.960;20.158;2023-02-01T13:04:58;99014.27;;;7.21;66.37
55801;BME280;41730;51.960;20.158;2023-02-01T13:07:37;99003.48;;;7.25;66.41
55801;BME280;41730;51.960;20.158;2023-02-01T13:10:17;99002.17;;;7.34;65.94
55801;BME280;41730;51.960;20.158;2023-02-01T13:12:56;99007.88;;;7.31;65.87
55801;BME280;41730;51.960;20.158;2023-02-01T13:15:36;99005.17;;;7.50;65.74
55801;BME280;41730;51.960;20.158;2023-02-01T13:18:16;99010.23;;;7.64;65.35
55801;BME280;41730;51.960;20.158;2023-02-01T13:20:56;99013.89;;;7.65;65.10
55801;BME280;41730;51.960;20.158;2023-02-01T13:23:33;99020.88;;;7.54;64.69
55801;BME280;41730;51.960;20.158;2023-02-01T13:26:07;99019.73;;;7.35;65.06
55801;BME280;41730;51.960;20.158;2023-02-01T13:28:45;99033.38;;;7.17;64.80
55801;BME280;41730;51.960;20.158;2023-02-01T13:31:52;99029.96;;;6.97;65.02
55801;BME280;41730;51.960;20.158;2023-02-01T13:34:45;99033.53;;;6.97;65.26
55801;BME280;41730;51.960;20.158;2023-02-01T13:37:36;99039.29;;;7.15;64.95
55801;BME280;41730;51.960;20.158;2023-02-01T13:40:21;99041.43;;;7.26;64.46
55801;BME280;41730;51.960;20.158;2023-02-01T13:43:00;99042.55;;;7.27;64.26
55801;BME280;41730;51.960;20.158;2023-02-01T13:45:36;99042.02;;;7.23;64.38
55801;BME280;41730;51.960;20.158;2023-02-01T13:48:23;99044.89;;;7.22;64.33
55801;BME280;41730;51.960;20.158;2023-02-01T13:50:57;99045.56;;;7.07;64.99
55801;BME280;41730;51.960;20.158;2023-02-01T13:53:32;99043.98;;;7.07;65.02
55801;BME280;41730;51.960;20.158;2023-02-01T13:56:10;99044.14;;;7.01;64.99
55801;BME280;41730;51.960;20.158;2023-02-01T13:58:45;99041.36;;;6.93;65.19
55801;BME280;41730;51.960;20.158;2023-02-01T14:01:36;99039.14;;;6.80;65.43
55801;BME280;41730;51.960;20.158;2023-02-01T14:04:47;99045.23;;;6.80;65.63